Time;durP1;ratioP1;P1;durP2;ratioP2;P2;SDS_P1;SDS_P2;PMS_P1;PMS_P2;Temp;Humidity;BMP_temperature;BMP_pressure;BME280_temperature;BME280_humidity;BME280_pressure;Samples;Min_cycle;Max_cycle;Signal;HPM_P1;HPM_P2
2022/09/05 00:02:03;;;;;;;4.50;3.27;;;18.10;99.90;;;;;;4890085;29;20463;-55
2022/09/05 00:04:59;;;;;;;3.53;3.23;;;18.10;99.90;;;;;;4876891;29;20436;-56
2022/09/05 00:07:46;;;;;;;3.23;2.93;;;18.00;99.90;;;;;;4882588;29;21027;-55
2022/09/05 00:10:20;;;;;;;5.10;3.77;;;17.90;99.90;;;;;;4878103;29;20475;-56
2022/09/05 00:12:46;;;;;;;4.73;3.20;;;17.80;99.90;;;;;;4884842;29;20454;-55
2022/09/05 00:15:18;;;;;;;5.30;2.87;;;17.70;99.90;;;;;;4868659;29;20457;-60
2022/09/05 00:18:11;;;;;;;7.80;3.50;;;17.70;99.90;;;;;;4879605;29;20452;-55
2022/09/05 00:21:02;;;;;;;7.27;3.40;;;17.70;99.90;;;;;;4867039;29;20470;-55
2022/09/05 00:23:46;;;;;;;4.23;3.40;;;17.60;99.90;;;;;;4882984;29;20452;-55
2022/09/05 00:26:17;;;;;;;3.80;3.20;;;17.60;99.90;;;;;;4875956;29;20831;-55
2022/09/05 00:29:13;;;;;;;3.57;3.10;;;17.50;99.90;;;;;;4875201;29;20488;-55
2022/09/05 00:31:45;;;;;;;3.03;2.73;;;17.50;99.90;;;;;;4868820;29;20443;-55
2022/09/05 00:34:25;;;;;;;6.87;3.00;;;17.50;99.90;;;;;;4875743;29;20935;-55
2022/09/05 00:36:53;;;;;;;3.77;3.37;;;17.50;99.90;;;;;;4875949;29;20520;-55
2022/09/05 00:39:27;;;;;;;5.20;3.27;;;17.50;99.90;;;;;;4874954;29;20432;-55
2022/09/05 00:41:57;;;;;;;3.93;3.10;;;17.50;99.90;;;;;;4876395;29;20437;-55
2022/09/05 00:44:25;;;;;;;4.00;3.60;;;17.40;99.90;;;;;;4875562;29;20441;-55
2022/09/05 00:47:16;;;;;;;9.63;3.40;;;17.40;99.90;;;;;;4875486;29;20928;-56
2022/09/05 00:49:52;;;;;;;6.00;3.57;;;17.30;99.90;;;;;;4870540;29;20785;-55
2022/09/05 00:52:27;;;;;;;4.43;2.87;;;17.30;99.90;;;;;;4875355;29;20519;-54
2022/09/05 00:55:33;;;;;;;4.87;3.67;;;17.20;99.90;;;;;;4875091;29;20452;-55
2022/09/05 00:58:19;;;;;;;4.37;3.53;;;17.20;99.90;;;;;;4874872;29;20631;-56
2022/09/05 01:00:52;;;;;;;4.43;3.10;;;17.10;99.90;;;;;;4873937;29;20537;-56
2022/09/05 01:03:48;;;;;;;5.47;3.77;;;17.20;99.90;;;;;;4874796;29;20453;-55
2022/09/05 01:06:40;;;;;;;9.93;3.63;;;17.20;99.90;;;;;;4875373;29;20448;-55
2022/09/05 01:09:28;;;;;;;6.00;3.20;;;17.10;99.90;;;;;;4875457;29;20460;-55
2022/09/05 01:12:10;;;;;;;3.70;3.40;;;17.10;99.90;;;;;;4875401;29;20536;-55
2022/09/05 01:15:07;;;;;;;8.13;3.87;;;17.00;99.90;;;;;;4875219;29;20543;-55
2022/09/05 01:17:56;;;;;;;7.40;3.73;;;17.00;99.90;;;;;;4879553;29;20436;-55
2022/09/05 01:20:36;;;;;;;7.40;3.50;;;16.90;99.90;;;;;;4860086;29;21023;-55
2022/09/05 01:23:20;;;;;;;6.00;3.70;;;16.90;99.90;;;;;;4877627;29;20562;-51
2022/09/05 01:26:04;;;;;;;5.20;3.67;;;16.80;99.90;;;;;;4878758;29;20993;-51
2022/09/05 01:28:44;;;;;;;4.63;3.63;;;16.90;99.90;;;;;;4879603;29;20491;-52
2022/09/05 01:31:36;;;;;;;3.90;3.50;;;17.00;99.90;;;;;;4878547;29;20480;-51
2022/09/05 01:34:40;;;;;;;5.00;3.30;;;17.00;99.90;;;;;;4880810;29;20456;-51
2022/09/05 01:37:12;;;;;;;6.33;3.60;;;16.90;99.90;;;;;;4868056;29;20465;-51
2022/09/05 01:40:22;;;;;;;7.60;3.37;;;16.90;99.90;;;;;;4879318;29;20475;-52
2022/09/05 01:43:02;;;;;;;6.70;4.27;;;16.90;99.90;;;;;;4877579;29;20453;-51
2022/09/05 01:45:50;;;;;;;5.40;3.60;;;17.00;99.90;;;;;;4878506;29;20428;-52
2022/09/05 01:48:45;;;;;;;4.60;3.60;;;16.90;99.90;;;;;;4886608;29;20468;-51
2022/09/05 01:51:31;;;;;;;5.30;3.93;;;16.90;99.90;;;;;;4882418;29;20487;-52
2022/09/05 01:54:14;;;;;;;4.80;3.57;;;16.90;99.90;;;;;;4877731;29;20451;-51
2022/09/05 01:57:20;;;;;;;8.40;4.00;;;16.90;99.90;;;;;;4879527;29;20456;-51
2022/09/05 02:00:11;;;;;;;6.37;3.53;;;17.00;99.90;;;;;;4879321;29;20495;-51
2022/09/05 02:03:00;;;;;;;5.33;3.63;;;17.00;99.90;;;;;;4878272;29;20433;-51
2022/09/05 02:05:35;;;;;;;3.60;3.30;;;17.00;99.90;;;;;;4870140;29;20457;-52
2022/09/05 02:08:14;;;;;;;4.50;3.70;;;17.00;99.90;;;;;;4879254;29;20483;-51
2022/09/05 02:10:58;;;;;;;3.87;3.50;;;16.90;99.90;;;;;;4890847;29;20472;-51
2022/09/05 02:13:35;;;;;;;4.60;3.50;;;16.90;99.90;;;;;;4881560;29;20440;-52
2022/09/05 02:16:19;;;;;;;4.33;3.43;;;16.90;99.90;;;;;;4888827;29;20432;-52
2022/09/05 02:19:04;;;;;;;5.40;4.00;;;16.90;99.90;;;;;;4879441;29;20446;-52
2022/09/05 02:21:45;;;;;;;5.20;3.90;;;16.90;99.90;;;;;;4887456;29;20475;-59
2022/09/05 02:24:14;;;;;;;3.67;3.37;;;16.90;99.90;;;;;;4880147;29;20881;-55
2022/09/05 02:27:24;;;;;;;4.23;3.63;;;16.80;99.90;;;;;;4879828;29;20792;-55
2022/09/05 02:30:14;;;;;;;7.50;3.37;;;16.70;99.90;;;;;;4857961;29;21146;-54
2022/09/05 02:33:08;;;;;;;6.40;3.23;;;16.70;99.90;;;;;;4877196;29;20441;-55
2022/09/05 02:36:07;;;;;;;6.20;4.00;;;16.70;99.90;;;;;;4894391;29;20967;-56
2022/09/05 02:38:51;;;;;;;4.73;4.20;;;16.60;99.90;;;;;;4876958;29;20459;-54
2022/09/05 02:41:33;;;;;;;5.83;4.10;;;16.60;99.90;;;;;;4886951;29;20469;-55
2022/09/05 02:44:19;;;;;;;5.33;3.90;;;16.60;99.90;;;;;;4882976;29;20483;-55
2022/09/05 02:47:21;;;;;;;4.50;4.10;;;16.50;99.90;;;;;;4886121;29;20437;-55
2022/09/05 02:50:14;;;;;;;11.60;4.27;;;16.50;99.90;;;;;;4869906;29;20436;-55
2022/09/05 02:52:42;;;;;;;21.20;4.90;;;16.50;99.90;;;;;;4879650;29;20436;-55
2022/09/05 02:55:32;;;;;;;5.47;3.70;;;16.50;99.90;;;;;;4892285;29;20780;-54
2022/09/05 02:58:29;;;;;;;4.93;4.10;;;16.40;99.90;;;;;;4876905;29;20938;-55
2022/09/05 03:01:21;;;;;;;4.10;3.70;;;16.30;99.90;;;;;;4876928;29;21038;-55
2022/09/05 03:04:03;;;;;;;9.73;4.00;;;16.40;99.90;;;;;;4867874;29;21162;-56
2022/09/05 03:07:05;;;;;;;4.37;3.97;;;16.30;99.90;;;;;;4876414;29;20452;-55
2022/09/05 03:09:54;;;;;;;6.30;4.17;;;16.30;99.90;;;;;;4874297;29;20428;-55
2022/09/05 03:12:45;;;;;;;5.70;3.70;;;16.20;99.90;;;;;;4866758;29;20453;-55
2022/09/05 03:15:16;;;;;;;7.13;4.17;;;16.20;99.90;;;;;;4877059;29;20432;-55
2022/09/05 03:17:52;;;;;;;4.10;3.70;;;16.20;99.90;;;;;;4874612;29;21006;-55
2022/09/05 03:20:41;;;;;;;6.40;4.30;;;16.20;99.90;;;;;;4875795;29;20475;-55
2022/09/05 03:23:18;;;;;;;5.13;4.63;;;16.20;99.90;;;;;;4878331;29;20971;-55
2022/09/05 03:25:59;;;;;;;5.10;3.83;;;16.20;99.90;;;;;;4878652;29;20524;-55
2022/09/05 03:29:09;;;;;;;6.77;4.30;;;16.20;99.90;;;;;;4861647;29;20480;-52
2022/09/05 03:32:12;;;;;;;5.20;4.30;;;16.20;99.90;;;;;;4874909;29;20453;-51
2022/09/05 03:35:05;;;;;;;5.80;4.40;;;16.20;99.90;;;;;;4875951;29;20457;-51
2022/09/05 03:37:49;;;;;;;7.63;4.30;;;16.10;99.90;;;;;;4876537;29;20481;-51
2022/09/05 03:40:38;;;;;;;4.80;4.10;;;16.10;99.90;;;;;;4876071;29;21058;-51
2022/09/05 03:43:06;;;;;;;7.60;4.30;;;16.10;99.90;;;;;;4874666;29;20452;-51
2022/09/05 03:45:37;;;;;;;5.77;4.40;;;16.10;99.90;;;;;;4876354;29;20429;-51
2022/09/05 03:48:09;;;;;;;4.40;4.00;;;16.10;99.90;;;;;;4851077;29;20453;-52
2022/09/05 03:50:57;;;;;;;8.00;4.57;;;16.10;99.90;;;;;;4875921;29;20818;-51
2022/09/05 03:53:50;;;;;;;5.07;4.53;;;16.10;99.90;;;;;;4876279;29;20831;-53
2022/09/05 03:56:47;;;;;;;6.03;4.93;;;16.00;99.90;;;;;;4875370;29;21243;-51
2022/09/05 03:59:50;;;;;;;5.90;5.27;;;16.00;99.90;;;;;;4876992;29;20421;-52
2022/09/05 04:02:27;;;;;;;6.83;4.43;;;16.00;99.90;;;;;;4875322;29;20456;-51
2022/09/05 04:05:05;;;;;;;4.83;4.33;;;16.00;99.90;;;;;;4875262;29;20947;-51
2022/09/05 04:07:39;;;;;;;6.63;4.70;;;16.00;99.90;;;;;;4875208;29;20460;-51
2022/09/05 04:10:34;;;;;;;6.67;4.77;;;16.00;99.90;;;;;;4877168;29;20770;-51
2022/09/05 04:13:15;;;;;;;6.40;4.83;;;15.90;99.90;;;;;;4873478;29;20470;-51
2022/09/05 04:15:45;;;;;;;5.77;4.70;;;15.90;99.90;;;;;;4875912;29;20436;-51
2022/09/05 04:18:16;;;;;;;6.00;4.80;;;15.90;99.90;;;;;;4875895;29;20452;-51
2022/09/05 04:20:57;;;;;;;8.47;4.37;;;16.00;99.90;;;;;;4876363;29;20544;-52
2022/09/05 04:23:43;;;;;;;5.10;4.60;;;15.90;99.90;;;;;;4875125;29;20452;-51
2022/09/05 04:26:34;;;;;;;8.20;5.07;;;15.90;99.90;;;;;;4874714;29;20488;-52
2022/09/05 04:29:14;;;;;;;6.87;4.80;;;15.90;99.90;;;;;;4876135;29;21131;-52
2022/09/05 04:32:16;;;;;;;5.70;4.80;;;15.90;99.90;;;;;;4875827;29;20556;-51
2022/09/05 04:35:28;;;;;;;6.67;5.10;;;16.00;99.90;;;;;;4875414;29;20448;-51
2022/09/05 04:38:14;;;;;;;5.90;5.00;;;15.90;99.90;;;;;;4837050;29;20512;-52
2022/09/05 04:41:02;;;;;;;6.83;4.70;;;16.00;99.90;;;;;;4874835;29;20504;-51
2022/09/05 04:43:46;;;;;;;7.03;4.80;;;16.00;99.90;;;;;;4875701;29;20445;-51
2022/09/05 04:46:31;;;;;;;7.40;4.97;;;16.00;99.90;;;;;;4874298;29;20554;-52
2022/09/05 04:49:05;;;;;;;10.90;4.70;;;16.00;99.90;;;;;;4876173;29;20908;-51
2022/09/05 04:51:47;;;;;;;5.30;4.80;;;16.00;99.90;;;;;;4878732;29;20444;-51
2022/09/05 04:54:53;;;;;;;5.97;5.23;;;16.00;99.90;;;;;;4878233;29;20476;-51
2022/09/05 04:57:29;;;;;;;6.20;4.60;;;16.10;99.90;;;;;;4876325;29;20515;-52
2022/09/05 05:00:05;;;;;;;6.10;5.10;;;16.10;99.90;;;;;;4865769;29;20502;-51
2022/09/05 05:02:43;;;;;;;6.03;5.20;;;16.20;99.90;;;;;;4880005;29;20451;-52
2022/09/05 05:05:21;;;;;;;5.93;4.73;;;16.20;99.90;;;;;;4879039;29;20441;-51
2022/09/05 05:08:14;;;;;;;6.23;4.60;;;16.20;99.90;;;;;;4877837;29;20436;-51
2022/09/05 05:10:55;;;;;;;9.37;5.40;;;16.20;99.90;;;;;;4871432;29;20468;-51
2022/09/05 05:13:29;;;;;;;9.03;5.00;;;16.30;99.90;;;;;;4878869;29;20829;-51
2022/09/05 05:16:09;;;;;;;8.33;5.47;;;16.30;99.90;;;;;;4879330;29;20764;-51
2022/09/05 05:18:52;;;;;;;5.33;4.83;;;16.40;99.90;;;;;;4879103;29;21152;-51
2022/09/05 05:21:23;;;;;;;6.63;5.10;;;16.40;99.90;;;;;;4878818;29;20479;-51
2022/09/05 05:24:06;;;;;;;9.33;5.50;;;16.50;99.90;;;;;;4879193;29;20453;-52
2022/09/05 05:26:51;;;;;;;14.53;5.77;;;16.60;99.90;;;;;;4878107;29;20503;-51
2022/09/05 05:29:42;;;;;;;11.00;5.60;;;16.70;99.90;;;;;;4877772;29;20858;-51
2022/09/05 05:32:24;;;;;;;8.23;5.57;;;16.80;99.90;;;;;;4877746;29;20451;-51
2022/09/05 05:34:56;;;;;;;6.33;4.90;;;16.80;99.90;;;;;;4877384;29;20452;-51
2022/09/05 05:38:09;;;;;;;6.03;5.43;;;17.00;99.90;;;;;;4877160;29;20451;-52
2022/09/05 05:40:44;;;;;;;7.10;5.20;;;17.10;99.90;;;;;;4876633;29;20519;-51
2022/09/05 05:43:32;;;;;;;11.23;5.23;;;17.10;99.90;;;;;;4878403;29;20844;-52
2022/09/05 05:45:59;;;;;;;6.23;5.27;;;17.20;99.90;;;;;;4870040;29;20441;-51
2022/09/05 05:48:36;;;;;;;11.20;4.80;;;17.30;99.90;;;;;;4879429;29;20429;-52
2022/09/05 05:51:26;;;;;;;8.00;5.43;;;17.40;99.90;;;;;;4876810;29;20947;-51
2022/09/05 05:54:17;;;;;;;7.23;5.73;;;17.50;99.90;;;;;;4878200;29;20527;-51
2022/09/05 05:56:54;;;;;;;12.20;5.63;;;17.60;99.90;;;;;;4879585;29;20620;-51
2022/09/05 05:59:31;;;;;;;8.70;5.20;;;17.70;99.90;;;;;;4878564;29;20931;-52
2022/09/05 06:01:57;;;;;;;11.73;5.07;;;17.80;99.90;;;;;;4878815;29;20408;-51
2022/09/05 06:04:38;;;;;;;7.67;5.27;;;17.80;99.90;;;;;;4877442;29;20459;-51
2022/09/05 06:07:31;;;;;;;6.43;5.20;;;17.90;99.90;;;;;;4878431;29;20200;-60
2022/09/05 06:10:10;;;;;;;10.20;5.00;;;18.00;99.90;;;;;;4878646;29;20445;-56
2022/09/05 06:13:10;;;;;;;8.50;4.90;;;18.20;99.90;;;;;;4877853;29;20452;-55
2022/09/05 06:16:03;;;;;;;7.43;5.40;;;18.30;99.90;;;;;;4878304;29;20453;-55
2022/09/05 06:18:51;;;;;;;7.50;5.03;;;18.40;99.90;;;;;;4879088;29;20409;-55
2022/09/05 06:21:37;;;;;;;5.53;4.90;;;18.50;99.90;;;;;;4877705;29;20469;-54
2022/09/05 06:24:40;;;;;;;8.57;5.20;;;18.50;99.90;;;;;;4876361;29;21275;-55
2022/09/05 06:27:05;;;;;;;11.33;5.07;;;18.60;99.90;;;;;;4880194;29;20517;-55
2022/09/05 06:29:47;;;;;;;6.70;4.90;;;18.50;99.90;;;;;;4891338;29;20457;-55
2022/09/05 06:32:56;;;;;;;6.10;4.60;;;18.60;99.90;;;;;;4877718;29;20287;-55
2022/09/05 06:35:37;;;;;;;7.93;5.20;;;18.70;99.90;;;;;;4862009;29;20456;-54
2022/09/05 06:38:18;;;;;;;5.73;5.13;;;18.80;99.90;;;;;;4878179;29;20424;-56
2022/09/05 06:41:06;;;;;;;5.10;4.57;;;18.90;99.90;;;;;;4881706;29;20570;-55
2022/09/05 06:44:12;;;;;;;7.10;5.17;;;19.00;99.90;;;;;;4884320;29;20445;-55
2022/09/05 06:46:43;;;;;;;6.90;4.53;;;19.20;99.90;;;;;;4874913;29;20949;-54
2022/09/05 06:49:19;;;;;;;5.77;5.00;;;19.20;99.90;;;;;;4860045;29;20420;-56
2022/09/05 06:51:44;;;;;;;6.43;4.90;;;19.30;99.90;;;;;;4880000;29;20447;-55
2022/09/05 06:54:51;;;;;;;6.50;5.20;;;19.30;99.90;;;;;;4884838;29;20798;-55
2022/09/05 06:57:58;;;;;;;8.50;5.43;;;19.20;99.90;;;;;;4873449;29;20196;-55
2022/09/05 07:00:52;;;;;;;8.30;4.80;;;19.20;99.90;;;;;;4877468;29;20488;-56
2022/09/05 07:03:24;;;;;;;12.00;5.07;;;19.30;99.90;;;;;;4877562;29;20493;-56
2022/09/05 07:06:03;;;;;;;7.70;5.27;;;19.30;99.90;;;;;;4877060;29;20425;-55
2022/09/05 07:08:44;;;;;;;10.37;5.33;;;19.30;99.90;;;;;;4878581;29;20436;-56
2022/09/05 07:11:33;;;;;;;8.60;5.30;;;19.30;99.90;;;;;;4887853;29;20947;-55
2022/09/05 07:14:14;;;;;;;5.60;5.10;;;19.30;99.90;;;;;;4877064;29;20481;-55
2022/09/05 07:16:51;;;;;;;7.50;4.60;;;19.30;99.90;;;;;;4878779;29;20600;-55
2022/09/05 07:19:25;;;;;;;6.67;5.20;;;19.20;99.90;;;;;;4874378;29;20507;-56
2022/09/05 07:22:31;;;;;;;4.93;4.43;;;19.20;99.90;;;;;;4867469;29;20456;-56
2022/09/05 07:24:58;;;;;;;10.83;5.27;;;19.20;99.90;;;;;;4870625;29;20456;-56
2022/09/05 07:27:56;;;;;;;8.30;5.00;;;19.30;99.90;;;;;;4877779;29;20492;-55
2022/09/05 07:30:21;;;;;;;5.87;5.00;;;19.30;99.90;;;;;;4855492;29;20516;-55
2022/09/05 07:32:51;;;;;;;6.73;4.83;;;19.50;99.90;;;;;;4883811;29;20516;-55
2022/09/05 07:35:25;;;;;;;6.60;5.27;;;19.50;99.90;;;;;;4877085;29;20223;-56
2022/09/05 07:38:03;;;;;;;8.73;4.90;;;19.70;99.90;;;;;;4878570;29;20464;-55
2022/09/05 07:40:33;;;;;;;9.67;4.90;;;19.90;99.90;;;;;;4865993;29;20237;-54
2022/09/05 07:43:06;;;;;;;10.90;5.20;;;20.20;99.90;;;;;;4871528;29;20430;-55
2022/09/05 07:45:36;;;;;;;5.40;4.87;;;20.40;99.90;;;;;;4879889;29;20437;-55
2022/09/05 07:48:08;;;;;;;5.17;4.43;;;20.60;99.90;;;;;;4875166;29;20489;-56
2022/09/05 07:50:51;;;;;;;6.70;4.97;;;20.80;99.90;;;;;;4881645;29;20487;-54
2022/09/05 07:53:17;;;;;;;5.47;4.50;;;21.00;99.90;;;;;;4878988;29;20448;-54
2022/09/05 07:55:52;;;;;;;5.93;4.73;;;21.00;99.90;;;;;;4876053;29;21127;-56
2022/09/05 07:58:22;;;;;;;6.03;5.23;;;21.10;99.90;;;;;;4875807;29;21105;-56
2022/09/05 08:00:53;;;;;;;7.27;4.60;;;21.30;99.90;;;;;;4876613;29;20476;-55
2022/09/05 08:03:25;;;;;;;12.33;4.77;;;21.70;99.90;;;;;;4860508;29;20460;-56
2022/09/05 08:05:56;;;;;;;5.80;4.60;;;22.00;99.90;;;;;;4865014;29;20808;-56
2022/09/05 08:08:32;;;;;;;7.23;4.80;;;22.20;99.90;;;;;;4867677;29;20444;-55
2022/09/05 08:11:08;;;;;;;5.10;4.47;;;22.60;99.90;;;;;;4860021;29;20456;-55
2022/09/05 08:13:42;;;;;;;10.77;4.50;;;22.80;99.90;;;;;;4840869;29;20517;-56
2022/09/05 08:16:13;;;;;;;6.30;4.47;;;23.10;99.90;;;;;;4856862;29;20535;-56
2022/09/05 08:19:23;;;;;;;7.73;4.23;;;23.20;99.90;;;;;;4861569;29;20456;-56
2022/09/05 08:21:51;;;;;;;8.60;4.40;;;23.30;99.90;;;;;;4857542;29;20516;-56
2022/09/05 08:24:38;;;;;;;15.83;4.43;;;23.70;99.90;;;;;;4855599;29;20472;-56
2022/09/05 08:27:17;;;;;;;5.53;4.87;;;24.30;99.90;;;;;;4860510;29;20500;-55
2022/09/05 08:29:52;;;;;;;7.70;4.53;;;24.60;99.90;;;;;;4858037;29;20900;-56
2022/09/05 08:32:38;;;;;;;5.97;4.57;;;24.80;99.90;;;;;;4858038;29;20447;-56
2022/09/05 08:35:21;;;;;;;5.70;4.27;;;24.90;99.90;;;;;;4856646;29;20864;-56
2022/09/05 08:37:50;;;;;;;7.40;4.10;;;24.80;99.90;;;;;;4870276;29;20452;-56
2022/09/05 08:40:34;;;;;;;4.43;3.67;;;24.80;99.90;;;;;;4854504;29;20515;-58
2022/09/05 08:43:23;;;;;;;6.17;4.43;;;24.90;99.90;;;;;;4858969;29;21142;-56
2022/09/05 08:46:04;;;;;;;5.67;4.03;;;25.00;99.90;;;;;;4863050;29;20452;-56
2022/09/05 08:48:38;;;;;;;4.97;3.93;;;25.20;99.90;;;;;;4856474;29;22280;-56
2022/09/05 08:51:27;;;;;;;5.50;4.40;;;25.50;99.90;;;;;;4858161;29;20540;-56
2022/09/05 08:54:12;;;;;;;5.90;4.20;;;25.60;99.90;;;;;;4857152;29;20538;-57
2022/09/05 08:56:53;;;;;;;4.27;3.67;;;25.80;99.90;;;;;;4860117;29;22162;-56
2022/09/05 08:59:37;;;;;;;6.17;3.70;;;25.90;99.90;;;;;;4857712;29;20448;-56
2022/09/05 09:02:21;;;;;;;7.13;4.23;;;25.90;99.90;;;;;;4863093;29;20480;-56
2022/09/05 09:05:13;;;;;;;4.93;4.27;;;25.80;99.90;;;;;;4872512;29;20441;-56
2022/09/05 09:07:45;;;;;;;3.80;3.47;;;25.90;99.90;;;;;;4878818;29;20496;-57
2022/09/05 09:10:46;;;;;;;9.93;4.30;;;25.80;99.90;;;;;;4878329;29;20437;-56
2022/09/05 09:13:41;;;;;;;7.93;4.13;;;25.80;99.90;;;;;;4853938;29;20810;-56
2022/09/05 09:16:09;;;;;;;8.93;3.73;;;26.30;99.90;;;;;;4860857;29;20440;-57
2022/09/05 09:18:47;;;;;;;10.47;4.40;;;26.60;99.90;;;;;;4870433;29;20437;-57
2022/09/05 09:21:31;;;;;;;7.17;3.70;;;26.40;99.90;;;;;;4865441;29;20993;-57
2022/09/05 09:24:05;;;;;;;4.90;4.07;;;26.00;99.90;;;;;;4880083;29;20443;-57
2022/09/05 09:26:41;;;;;;;8.13;4.00;;;25.80;99.90;;;;;;4890169;29;20439;-57
2022/09/05 09:29:09;;;;;;;4.80;3.90;;;25.60;99.90;;;;;;4874008;29;20977;-56
2022/09/05 09:31:38;;;;;;;5.70;4.20;;;25.40;99.90;;;;;;4874599;29;20448;-57
2022/09/05 09:34:39;;;;;;;8.80;3.83;;;25.20;99.90;;;;;;4875291;29;21282;-57
2022/09/05 09:37:24;;;;;;;6.23;4.10;;;24.80;99.90;;;;;;4847331;29;20440;-55
2022/09/05 09:40:09;;;;;;;6.20;3.93;;;24.60;99.90;;;;;;4877013;29;20815;-57
2022/09/05 09:42:56;;;;;;;9.70;4.50;;;24.60;99.90;;;;;;4879002;29;20483;-56
2022/09/05 09:45:50;;;;;;;7.67;4.80;;;24.90;99.90;;;;;;4879665;29;20413;-56
2022/09/05 09:48:15;;;;;;;5.57;4.53;;;24.90;99.90;;;;;;4877204;29;20537;-55
2022/09/05 09:51:16;;;;;;;5.40;4.83;;;24.60;99.90;;;;;;4874318;29;20445;-56
2022/09/05 09:53:56;;;;;;;5.37;4.70;;;24.40;99.90;;;;;;4870121;29;20280;-55
2022/09/05 09:57:00;;;;;;;4.70;4.20;;;24.50;99.90;;;;;;4878579;29;20899;-56
2022/09/05 10:00:02;;;;;;;8.57;4.50;;;24.50;99.90;;;;;;4826738;29;20527;-56
2022/09/05 10:02:56;;;;;;;8.60;4.80;;;24.30;99.90;;;;;;4864131;29;20938;-56
2022/09/05 10:05:49;;;;;;;6.83;5.13;;;24.30;99.90;;;;;;4876102;29;20425;-57
2022/09/05 10:08:38;;;;;;;6.33;5.50;;;24.50;99.90;;;;;;4875859;29;20454;-56
2022/09/05 10:11:10;;;;;;;6.27;4.97;;;24.70;99.90;;;;;;4867725;29;20990;-55
2022/09/05 10:14:03;;;;;;;5.83;5.33;;;25.00;99.90;;;;;;4879608;29;20848;-61
2022/09/05 10:17:06;;;;;;;6.40;5.07;;;25.20;99.90;;;;;;4880475;29;20530;-56
2022/09/05 10:20:09;;;;;;;8.90;5.40;;;25.30;99.90;;;;;;4865994;29;20427;-56
2022/09/05 10:22:56;;;;;;;5.50;4.60;;;25.10;99.90;;;;;;4868796;29;20489;-56
2022/09/05 10:25:33;;;;;;;6.00;5.40;;;25.10;99.90;;;;;;4866056;29;20452;-57
2022/09/05 10:28:15;;;;;;;5.50;5.00;;;25.10;99.90;;;;;;4881957;29;20488;-55
2022/09/05 10:31:00;;;;;;;5.93;4.93;;;25.20;99.90;;;;;;4878922;29;20449;-56
2022/09/05 10:33:56;;;;;;;5.20;4.60;;;25.20;99.90;;;;;;4876408;29;20440;-57
2022/09/05 10:36:30;;;;;;;15.73;4.93;;;25.00;99.90;;;;;;4869359;29;20440;-58
2022/09/05 10:38:59;;;;;;;5.30;4.77;;;24.70;99.90;;;;;;4882798;29;20463;-56
2022/09/05 10:41:42;;;;;;;6.20;4.73;;;24.60;99.90;;;;;;4874423;29;20483;-57
2022/09/05 10:44:12;;;;;;;5.70;4.40;;;24.50;99.90;;;;;;4878028;29;20461;-56
2022/09/05 10:47:20;;;;;;;7.27;5.13;;;24.40;99.90;;;;;;4876146;29;20500;-56
2022/09/05 10:49:49;;;;;;;6.10;4.70;;;24.30;99.90;;;;;;4855076;29;20963;-56
2022/09/05 10:52:29;;;;;;;9.07;4.80;;;24.30;99.90;;;;;;4877047;29;20501;-56
2022/09/05 10:55:24;;;;;;;6.00;4.90;;;24.10;99.90;;;;;;4874517;29;20533;-56
2022/09/05 10:58:15;;;;;;;5.80;5.20;;;24.00;99.90;;;;;;4875224;29;20444;-56
2022/09/05 11:01:00;;;;;;;7.57;4.60;;;23.80;99.90;;;;;;4876805;29;20490;-56
2022/09/05 11:03:42;;;;;;;8.07;5.17;;;23.70;99.90;;;;;;4879034;29;20436;-56
2022/09/05 11:06:14;;;;;;;8.40;4.80;;;23.70;99.90;;;;;;4877865;29;20448;-57
2022/09/05 11:09:05;;;;;;;7.50;4.40;;;23.80;99.90;;;;;;4876105;29;20488;-56
2022/09/05 11:11:44;;;;;;;5.53;4.73;;;23.80;99.90;;;;;;4877058;29;20439;-55
2022/09/05 11:14:28;;;;;;;9.67;4.60;;;23.80;99.90;;;;;;4877060;29;20456;-56
2022/09/05 11:17:05;;;;;;;6.60;4.60;;;23.80;99.90;;;;;;4876221;29;20445;-56
2022/09/05 11:19:46;;;;;;;13.37;4.63;;;23.70;99.90;;;;;;4877882;29;20411;-56
2022/09/05 11:22:13;;;;;;;7.97;4.50;;;23.70;99.90;;;;;;4877837;29;20899;-56
2022/09/05 11:24:54;;;;;;;7.03;4.60;;;23.70;99.90;;;;;;4876097;29;20475;-56
2022/09/05 11:27:38;;;;;;;4.47;4.07;;;23.70;99.90;;;;;;4876797;29;20967;-56
2022/09/05 11:30:18;;;;;;;9.73;4.37;;;23.80;99.90;;;;;;4877395;29;20460;-55
2022/09/05 11:33:14;;;;;;;6.93;3.80;;;23.80;99.90;;;;;;4877857;29;21182;-55
2022/09/05 11:36:16;;;;;;;4.40;4.00;;;23.70;99.90;;;;;;4877494;29;20556;-55
2022/09/05 11:39:11;;;;;;;4.30;3.90;;;23.70;99.90;;;;;;4866119;29;20476;-55
2022/09/05 11:42:17;;;;;;;23.80;4.93;;;23.70;99.90;;;;;;4876645;29;20485;-55
2022/09/05 11:45:01;;;;;;;6.17;4.13;;;23.70;99.90;;;;;;4872297;29;20451;-56
2022/09/05 11:47:54;;;;;;;6.13;3.20;;;23.60;99.90;;;;;;4872217;29;20452;-55
2022/09/05 11:50:53;;;;;;;6.00;4.03;;;23.80;99.90;;;;;;4875536;29;20444;-56
2022/09/05 11:53:47;;;;;;;7.37;4.27;;;23.70;99.90;;;;;;4875917;29;20508;-55
2022/09/05 11:57:01;;;;;;;8.63;4.10;;;23.70;99.90;;;;;;4876227;29;20450;-56
2022/09/05 11:59:32;;;;;;;4.17;3.60;;;23.70;99.90;;;;;;4818790;29;20487;-56
2022/09/05 12:02:10;;;;;;;4.10;3.70;;;23.70;99.90;;;;;;4818696;29;20495;-57
2022/09/05 12:04:41;;;;;;;5.70;4.30;;;23.60;99.90;;;;;;4838489;29;20567;-56
2022/09/05 12:07:23;;;;;;;5.47;4.00;;;23.60;99.90;;;;;;4876257;29;20453;-56
2022/09/05 12:10:08;;;;;;;9.30;4.00;;;23.60;99.90;;;;;;4859875;29;20440;-56
2022/09/05 12:12:45;;;;;;;3.80;3.50;;;23.60;99.90;;;;;;4876785;29;20413;-55
2022/09/05 12:15:33;;;;;;;4.17;3.77;;;23.60;99.90;;;;;;4876283;29;20527;-55
2022/09/05 12:18:29;;;;;;;4.10;3.80;;;23.60;99.90;;;;;;4877256;29;20940;-56
2022/09/05 12:21:11;;;;;;;5.90;3.60;;;23.60;99.90;;;;;;4873076;29;20484;-56
2022/09/05 12:23:49;;;;;;;7.47;3.60;;;23.50;99.90;;;;;;4872270;29;20437;-56
2022/09/05 12:26:46;;;;;;;4.57;4.17;;;23.60;99.90;;;;;;4880867;29;20477;-56
2022/09/05 12:29:23;;;;;;;4.90;3.53;;;23.60;99.90;;;;;;4867283;29;20456;-56
2022/09/05 12:31:58;;;;;;;8.90;4.00;;;23.60;99.90;;;;;;4862327;29;20432;-56
2022/09/05 12:34:49;;;;;;;4.80;3.90;;;23.60;99.90;;;;;;4875593;29;20530;-56
2022/09/05 12:37:39;;;;;;;6.40;3.47;;;23.60;99.90;;;;;;4867781;29;20437;-56
2022/09/05 12:40:10;;;;;;;4.97;3.90;;;23.70;99.90;;;;;;4846942;29;20484;-56
2022/09/05 12:42:55;;;;;;;6.30;4.20;;;23.80;99.90;;;;;;4875183;29;20990;-57
2022/09/05 12:45:33;;;;;;;6.27;3.67;;;23.70;99.90;;;;;;4864329;29;20846;-56
2022/09/05 12:48:23;;;;;;;4.57;4.00;;;23.70;99.90;;;;;;4875725;29;20444;-56
2022/09/05 12:51:01;;;;;;;4.47;3.60;;;23.70;99.90;;;;;;4874180;29;20445;-55
2022/09/05 12:53:43;;;;;;;6.37;3.90;;;23.70;99.90;;;;;;4865921;29;20448;-55
2022/09/05 12:56:32;;;;;;;9.00;3.83;;;23.70;99.90;;;;;;4867114;29;20456;-57
2022/09/05 12:59:02;;;;;;;4.30;3.90;;;23.70;99.90;;;;;;4875334;29;20452;-56
2022/09/05 13:01:32;;;;;;;6.27;4.33;;;23.70;99.90;;;;;;4876037;29;20517;-56
2022/09/05 13:04:23;;;;;;;4.47;3.90;;;23.70;99.90;;;;;;4875769;29;20512;-56
2022/09/05 13:06:57;;;;;;;6.20;3.93;;;23.80;99.90;;;;;;4875355;29;20533;-55
2022/09/05 13:09:55;;;;;;;4.90;3.80;;;23.80;99.90;;;;;;4873368;29;20814;-57
2022/09/05 13:12:35;;;;;;;4.07;3.70;;;24.00;99.90;;;;;;4875026;29;20460;-56
2022/09/05 13:15:04;;;;;;;8.67;4.10;;;24.20;99.90;;;;;;4879040;29;20428;-56
2022/09/05 13:17:37;;;;;;;4.40;4.00;;;24.40;99.90;;;;;;4879911;29;20436;-56
2022/09/05 13:20:32;;;;;;;7.27;3.87;;;24.50;99.90;;;;;;4876964;29;20608;-55
2022/09/05 13:23:04;;;;;;;6.40;4.10;;;24.40;99.90;;;;;;4876358;29;20519;-56
2022/09/05 13:25:33;;;;;;;5.60;4.20;;;24.30;99.90;;;;;;4874694;29;20472;-56
2022/09/05 13:28:05;;;;;;;17.67;4.40;;;24.30;99.90;;;;;;4879722;29;20483;-56
2022/09/05 13:30:36;;;;;;;9.40;3.37;;;24.30;99.90;;;;;;4878564;29;20475;-56
2022/09/05 13:33:22;;;;;;;5.33;3.23;;;24.30;99.90;;;;;;4879534;29;20476;-57
2022/09/05 13:36:04;;;;;;;4.80;3.40;;;24.20;99.90;;;;;;4879924;29;20983;-56
2022/09/05 13:39:00;;;;;;;9.63;4.00;;;24.20;99.90;;;;;;4878836;29;20861;-55
2022/09/05 13:41:49;;;;;;;8.43;3.60;;;24.30;99.90;;;;;;4866191;29;20480;-55
2022/09/05 13:44:20;;;;;;;8.00;3.60;;;24.30;99.90;;;;;;4877954;29;20447;-58
2022/09/05 13:46:53;;;;;;;4.43;3.70;;;24.40;99.90;;;;;;4882301;29;20448;-56
2022/09/05 13:49:26;;;;;;;4.63;3.70;;;24.50;99.90;;;;;;4864796;29;20444;-54
2022/09/05 13:52:06;;;;;;;10.27;3.90;;;24.50;99.90;;;;;;4879998;29;20424;-55
2022/09/05 13:55:01;;;;;;;6.47;3.80;;;24.60;99.90;;;;;;4879564;29;20429;-56
2022/09/05 13:57:39;;;;;;;8.87;3.87;;;24.70;99.90;;;;;;4871261;29;20452;-55
2022/09/05 14:02:43;;;;;;;10.17;4.63;;;24.90;99.90;;;;;;4880041;29;20444;-55
2022/09/05 14:05:30;;;;;;;5.33;3.60;;;24.90;99.90;;;;;;4878858;29;20447;-54
2022/09/05 14:08:33;;;;;;;3.80;3.40;;;24.80;99.90;;;;;;4878198;29;20444;-61
2022/09/05 14:11:44;;;;;;;5.83;3.87;;;24.80;99.90;;;;;;4857112;29;20448;-57
2022/09/05 14:14:19;;;;;;;5.73;4.30;;;24.80;99.90;;;;;;4870967;29;20460;-54